Postville, Iowa
Current Conditions -  °F | °C
As of 1:35 PM on Saturday 25 Oct 2014 (Local Time) from KDEH Reporting Station
Clear Clear  
Wind Chill: 64°   Ceiling: Unl
Heat Index: 64°   Visibility: 10mi
Dew Point: 30°   Wind: 17mph
Humidity: 28%   Direction: 320°NW
Pressure: 30.03"   Gusts: NA
Location:  43.08°N, 91.57°W
Report Text: KDEH 251835Z AUTO 32015KT 10SM CLR 18/M01 A3003 RMK AO2
Loading
Personal Weather Stations






























Interactive Weather Map
Tropical Storm Tracking
New forecast layout! Learn more

10-Day Weather Forecast

Advertisements
Track Severe Weather on mobile